createdAt,value
2023-04-19T00:00:19.974Z,9.63
2023-04-19T00:05:24.698Z,9.67
2023-04-19T00:10:27.817Z,9.62
2023-04-19T00:15:32.684Z,9.63
2023-04-19T00:20:36.273Z,9.60
2023-04-19T00:25:39.554Z,9.61
2023-04-19T00:30:43.971Z,9.55
2023-04-19T00:35:47.034Z,9.54
2023-04-19T00:40:50.143Z,9.52
2023-04-19T00:45:54.756Z,9.51
2023-04-19T00:50:57.964Z,9.51
2023-04-19T00:56:04.685Z,9.52
2023-04-19T01:01:09.101Z,9.54
2023-04-19T01:06:12.300Z,9.51
2023-04-19T01:11:15.374Z,9.50
2023-04-19T01:16:20.115Z,9.49
2023-04-19T01:21:23.384Z,9.49
2023-04-19T01:26:27.749Z,9.46
2023-04-19T01:31:30.879Z,9.46
2023-04-19T01:36:33.971Z,9.45
2023-04-19T01:41:38.326Z,9.38
2023-04-19T01:46:42.654Z,9.39
2023-04-19T01:51:46.562Z,9.36
2023-04-19T01:56:50.941Z,9.35
2023-04-19T02:01:53.998Z,9.34
2023-04-19T02:06:57.014Z,9.28
2023-04-19T02:12:01.447Z,9.35
2023-04-19T02:17:04.519Z,9.33
2023-04-19T02:22:07.905Z,9.32
2023-04-19T02:27:12.770Z,9.35
2023-04-19T02:32:15.857Z,9.37
2023-04-19T02:37:19.149Z,9.38
2023-04-19T02:42:23.486Z,9.41
2023-04-19T02:47:26.576Z,9.43
2023-04-19T02:52:29.606Z,9.41
2023-04-19T02:57:34.015Z,9.37
2023-04-19T03:02:37.973Z,9.34
2023-04-19T03:07:42.530Z,9.32
2023-04-19T03:12:48.733Z,9.33
2023-04-19T03:17:51.955Z,9.30
2023-04-19T03:22:54.992Z,9.29
2023-04-19T03:27:59.511Z,9.32
2023-04-19T03:33:02.522Z,9.32
2023-04-19T03:38:05.609Z,9.30
2023-04-19T03:43:10.006Z,9.30
2023-04-19T03:48:13.017Z,9.26
2023-04-19T03:53:16.055Z,9.25
2023-04-19T03:58:20.405Z,9.26
2023-04-19T04:03:23.777Z,9.21
2023-04-19T04:08:27.044Z,9.21
2023-04-19T04:13:31.443Z,9.20
2023-04-19T04:18:34.474Z,9.22
2023-04-19T04:23:37.741Z,9.21
2023-04-19T04:28:42.326Z,9.22
2023-04-19T04:33:46.243Z,9.16
2023-04-19T04:38:49.883Z,9.19
2023-04-19T04:44:10.775Z,9.18
2023-04-19T04:49:15.441Z,9.16
2023-04-19T04:54:18.808Z,9.20
2023-04-19T04:59:23.172Z,9.20
2023-04-19T05:04:26.700Z,9.20
2023-04-19T05:09:29.730Z,9.22
2023-04-19T05:14:34.438Z,9.28
2023-04-19T05:19:37.726Z,9.33
2023-04-19T05:24:42.407Z,9.41
2023-04-19T05:29:46.953Z,9.49
2023-04-19T05:34:49.998Z,9.48
2023-04-19T05:39:53.112Z,9.54
2023-04-19T05:44:57.472Z,9.54
2023-04-19T05:50:01.027Z,9.48
2023-04-19T05:55:04.675Z,9.42
2023-04-19T06:00:10.801Z,9.34
2023-04-19T06:05:14.374Z,9.35
2023-04-19T06:10:17.992Z,9.29
2023-04-19T06:15:26.159Z,9.29
2023-04-19T06:20:29.191Z,9.28
2023-04-19T06:25:32.247Z,9.40
2023-04-19T06:30:36.617Z,9.43
2023-04-19T06:35:39.647Z,9.44
2023-04-19T06:40:42.641Z,9.47
2023-04-19T06:45:47.483Z,9.39
2023-04-19T06:50:50.562Z,9.39
2023-04-19T06:55:59.532Z,9.33
2023-04-19T07:01:04.391Z,9.33
2023-04-19T07:06:07.955Z,9.50
2023-04-19T07:11:11.213Z,9.83
2023-04-19T07:16:15.693Z,10.22
2023-04-19T07:21:19.228Z,10.83
2023-04-19T07:26:22.319Z,11.01
2023-04-19T07:31:26.956Z,11.43
2023-04-19T07:36:31.419Z,11.57
2023-04-19T07:41:36.086Z,12.00
2023-04-19T07:46:43.903Z,12.31
2023-04-19T07:51:46.959Z,12.22
2023-04-19T07:56:50.110Z,12.44
2023-04-19T08:01:54.546Z,13.01
2023-04-19T08:06:58.156Z,13.95
2023-04-19T08:12:01.286Z,14.94
2023-04-19T08:17:24.136Z,15.56
2023-04-19T08:22:28.779Z,17.09
2023-04-19T08:27:31.976Z,17.40
2023-04-19T08:32:36.371Z,15.33
2023-04-19T08:37:39.404Z,15.67
2023-04-19T08:42:42.863Z,16.09
2023-04-19T08:47:59.972Z,18.09
2023-04-19T08:53:21.113Z,17.61
2023-04-19T08:58:41.313Z,18.11
2023-04-19T09:04:02.569Z,18.60
2023-04-19T09:14:24.658Z,19.68
2023-04-19T09:19:46.911Z,19.96
2023-04-19T09:29:57.510Z,19.67
2023-04-19T09:35:01.866Z,18.84
2023-04-19T09:40:23.427Z,18.48
2023-04-19T09:45:30.868Z,18.66
2023-04-19T09:50:46.880Z,18.57
2023-04-19T09:56:02.260Z,16.54
2023-04-19T10:01:15.136Z,17.35
2023-04-19T10:11:33.737Z,18.37
2023-04-19T10:16:38.896Z,18.65
2023-04-19T10:21:46.412Z,18.88
2023-04-19T10:27:12.218Z,18.82
2023-04-19T10:32:16.261Z,19.90
2023-04-19T10:37:23.750Z,20.06
2023-04-19T10:42:44.354Z,19.78
2023-04-19T10:47:47.505Z,20.04
2023-04-19T10:52:51.975Z,19.61
2023-04-19T10:58:06.173Z,19.48
2023-04-19T11:03:46.973Z,20.09
2023-04-19T11:08:52.153Z,19.34
2023-04-19T11:13:57.858Z,20.09
2023-04-19T11:19:01.180Z,19.59
2023-04-19T11:24:09.058Z,19.87
2023-04-19T11:29:12.279Z,19.81
2023-04-19T11:34:16.127Z,20.05
2023-04-19T11:39:21.393Z,20.68
2023-04-19T11:44:24.548Z,19.87
2023-04-19T11:49:29.142Z,20.05
2023-04-19T11:54:33.888Z,19.84
2023-04-19T11:59:37.899Z,19.87
2023-04-19T12:04:42.034Z,20.26
2023-04-19T12:09:49.864Z,20.02
2023-04-19T12:14:53.561Z,19.88
2023-04-19T12:19:56.605Z,19.75
2023-04-19T12:25:00.938Z,19.45
2023-04-19T12:30:04.525Z,19.08
2023-04-19T12:35:08.626Z,19.16
2023-04-19T12:40:14.791Z,19.37
2023-04-19T12:45:19.277Z,18.89
2023-04-19T12:50:22.399Z,18.88
2023-04-19T12:55:26.832Z,19.15
2023-04-19T13:00:30.179Z,18.89
2023-04-19T13:05:33.263Z,19.34
2023-04-19T13:10:37.613Z,19.48
2023-04-19T13:15:41.837Z,18.87
2023-04-19T13:20:44.853Z,18.36
2023-04-19T13:25:49.199Z,18.45
2023-04-19T13:30:52.819Z,18.44
2023-04-19T13:35:55.876Z,18.64
2023-04-19T13:41:00.327Z,18.30
2023-04-19T13:46:03.348Z,18.05
2023-04-19T13:51:07.647Z,18.53
2023-04-19T13:56:12.021Z,18.07
2023-04-19T14:01:15.157Z,18.19
2023-04-19T14:06:18.224Z,18.70
2023-04-19T14:11:23.737Z,17.31
2023-04-19T14:16:26.882Z,17.31
2023-04-19T14:21:31.646Z,17.88
2023-04-19T14:26:36.056Z,16.98
2023-04-19T14:31:39.119Z,16.92
2023-04-19T14:36:42.170Z,16.38
2023-04-19T14:41:46.511Z,15.94
2023-04-19T14:46:49.493Z,15.86
2023-04-19T14:51:52.873Z,16.74
2023-04-19T14:56:57.257Z,16.85
2023-04-19T15:02:00.329Z,16.23
2023-04-19T15:07:03.948Z,15.80
2023-04-19T15:12:08.477Z,15.41
2023-04-19T15:17:11.488Z,15.84
2023-04-19T15:22:14.991Z,15.54
2023-04-19T15:27:19.673Z,15.18
2023-04-19T15:32:22.901Z,14.97
2023-04-19T15:37:28.470Z,14.87
2023-04-19T15:42:33.003Z,14.34
2023-04-19T15:47:36.480Z,14.04
2023-04-19T15:52:39.958Z,13.71
2023-04-19T15:57:45.522Z,13.83
2023-04-19T16:02:49.280Z,14.18
2023-04-19T16:08:02.604Z,14.15
2023-04-19T16:13:07.505Z,14.09
2023-04-19T16:18:11.177Z,13.81
2023-04-19T16:23:14.544Z,13.56
2023-04-19T16:28:19.775Z,13.59
2023-04-19T16:33:22.871Z,13.50
2023-04-19T16:38:26.015Z,13.33
2023-04-19T16:43:30.388Z,13.27
2023-04-19T16:48:33.743Z,13.35
2023-04-19T16:53:36.808Z,13.23
2023-04-19T16:58:41.217Z,13.08
2023-04-19T17:03:45.768Z,12.96
2023-04-19T17:08:49.023Z,12.64
2023-04-19T17:13:55.284Z,12.50
2023-04-19T17:18:59.700Z,12.35
2023-04-19T17:24:02.707Z,12.08
2023-04-19T17:29:07.152Z,12.02
2023-04-19T17:34:10.192Z,11.87
2023-04-19T17:39:13.206Z,11.83
2023-04-19T17:44:17.660Z,11.76
2023-04-19T17:49:21.678Z,11.59
2023-04-19T17:54:25.076Z,11.53
2023-04-19T17:59:29.800Z,11.45
2023-04-19T18:04:32.895Z,11.26
2023-04-19T18:09:35.975Z,10.94
2023-04-19T18:14:40.305Z,10.81
2023-04-19T18:19:43.354Z,10.55
2023-04-19T18:24:47.333Z,10.25
2023-04-19T18:29:52.974Z,10.01
2023-04-19T18:34:56.046Z,9.63
2023-04-19T18:39:59.058Z,9.29
2023-04-19T18:45:04.182Z,9.01
2023-04-19T18:50:08.933Z,8.85
2023-04-19T18:55:13.694Z,8.84
2023-04-19T19:00:19.881Z,8.72
2023-04-19T19:05:23.112Z,8.73
2023-04-19T19:10:48.542Z,8.63
2023-04-19T19:15:50.716Z,8.42
2023-04-19T19:20:58.119Z,8.20
2023-04-19T19:26:01.751Z,7.91
2023-04-19T19:31:06.759Z,7.70
2023-04-19T19:36:10.262Z,7.57
2023-04-19T19:46:22.792Z,7.51
2023-04-19T19:56:53.827Z,7.61
2023-04-19T20:02:03.800Z,7.64
2023-04-19T20:07:32.476Z,7.58
2023-04-19T20:12:29.945Z,7.56
2023-04-19T20:17:34.356Z,7.54
2023-04-19T20:22:37.720Z,7.50
2023-04-19T20:27:41.022Z,7.49
2023-04-19T20:32:45.713Z,7.39
2023-04-19T20:37:48.830Z,7.28
2023-04-19T20:42:51.972Z,7.25
2023-04-19T20:47:59.691Z,7.18
2023-04-19T20:53:02.765Z,7.05
2023-04-19T20:58:05.954Z,6.90
2023-04-19T21:03:10.588Z,6.81
2023-04-19T21:08:16.017Z,6.68
2023-04-19T21:13:19.061Z,6.59
2023-04-19T21:18:24.522Z,6.53
2023-04-19T21:23:28.366Z,6.47
2023-04-19T21:28:31.738Z,6.36
2023-04-19T21:33:36.551Z,6.27
2023-04-19T21:38:39.619Z,6.13
2023-04-19T21:43:42.637Z,6.05
2023-04-19T21:48:46.981Z,6.11
2023-04-19T21:53:50.381Z,6.04
2023-04-19T21:58:53.380Z,5.85
2023-04-19T22:03:58.600Z,5.74
2023-04-19T22:09:02.981Z,5.66
2023-04-19T22:14:06.676Z,5.55
2023-04-19T22:19:11.423Z,5.44
2023-04-19T22:24:14.826Z,5.40
2023-04-19T22:29:18.517Z,5.39
2023-04-19T22:34:23.095Z,5.37
2023-04-19T22:39:26.816Z,5.40
2023-04-19T22:44:29.919Z,5.38
2023-04-19T22:49:35.112Z,5.39
2023-04-19T22:54:38.166Z,5.16
2023-04-19T22:59:41.799Z,5.19
2023-04-19T23:04:48.447Z,5.21
2023-04-19T23:09:51.700Z,5.32
2023-04-19T23:14:55.154Z,5.43
2023-04-19T23:19:59.885Z,5.46
2023-04-19T23:25:02.920Z,5.44
2023-04-19T23:30:08.269Z,5.47
2023-04-19T23:35:12.754Z,5.44
2023-04-19T23:40:15.794Z,5.47
2023-04-19T23:45:18.934Z,5.47
2023-04-19T23:50:23.429Z,5.46
2023-04-19T23:55:26.503Z,5.52
